CSAV Lonquen — A8OT2 — position and weather

sailwx.info

Track history (hours):
 
Tides and Currents Weather Stations Pressure Air Temp Water Temp Dewpoint Dewpoint Depression Visibility Wind Speed Wind Dir Waves Ship Positions

CSAV Lonquen

Last reported at 2017-Jul-21 14:53 UTC. Time now 2017-Jul-26 10:26 UTC.
Position N 01°15' E 104°02'.

Length 261 m; draft 9.6 m.

Type: Ship (hazmat cat D). MMSI: 636091501.

Date/timePositionNaut miles runAvg speedWind from/ knotsBaromVisibWave heightAir tempDewpointWater temp
2017-Jul-21 14:53N 01°15' E 104°02'512.2
2017-Jul-21 14:29N 01°14' E 103°57'510.6
2017-Jul-21 14:00N 01°14' E 103°52'3 5.0
2017-Jul-21 13:30N 01°15' E 103°51'1 1.6
2017-Jul-21 13:00N 01°16' E 103°50'0 0.0
2017-Jul-21 12:30N 01°16' E 103°50'0 0.0
2017-Jul-21 12:00N 01°16' E 103°50'0 0.0
2017-Jul-21 11:30N 01°16' E 103°50'0 0.0
2017-Jul-21 11:00N 01°16' E 103°50'0 0.0
2017-Jul-21 10:30N 01°16' E 103°50'0 0.0
2017-Jul-21 10:00N 01°16' E 103°50'0 0.0
2017-Jul-21 09:30N 01°16' E 103°50'0 0.0
2017-Jul-21 08:54N 01°16' E 103°50'0 0.0
2017-Jul-21 08:30N 01°16' E 103°50'0 0.0
2017-Jul-21 08:00N 01°16' E 103°50'0 0.0
2017-Jul-21 07:30N 01°16' E 103°50'0 0.0
2017-Jul-21 07:00N 01°16' E 103°50'0 0.0
2017-Jul-21 06:30N 01°16' E 103°50'0 0.0
2017-Jul-21 06:00N 01°16' E 103°50'0 0.0
2017-Jul-21 05:30N 01°16' E 103°50'0 0.0
2017-Jul-21 05:00N 01°16' E 103°50'0 0.0
2017-Jul-21 04:27N 01°16' E 103°50'0 0.0
2017-Jul-21 03:57N 01°16' E 103°50'0 0.0
2017-Jul-21 03:30N 01°16' E 103°50'0 0.0
2017-Jul-21 03:00N 01°16' E 103°50'0 0.0
2017-Jul-21 02:27N 01°16' E 103°50'1 2.8
2017-Jul-21 02:01N 01°15' E 103°51'1 2.6
2017-Jul-21 01:30N 01°14' E 103°52'1 2.8
2017-Jul-21 01:01N 01°13' E 103°53'2 4.1
2017-Jul-21 00:30N 01°12' E 103°52'4 8.8
2017-Jul-21 00:01N 01°10' E 103°48'4 9.0
2017-Jul-20 23:30N 01°07' E 103°45'4 8.9
2017-Jul-20 23:01N 01°04' E 103°42'4 8.1
2017-Jul-20 22:30N 01°04' E 103°37'5 9.2
2017-Jul-20 22:00N 01°06' E 103°34'510.0
2017-Jul-20 21:30N 01°09' E 103°29'510.1
2017-Jul-20 21:00N 01°11' E 103°25'510.2
2017-Jul-20 20:30N 01°15' E 103°21'  
Track history (hours):
 
Tides and Currents Weather Stations Pressure Air Temp Water Temp Dewpoint Dewpoint Depression Visibility Wind Speed Wind Dir Waves Ship Positions

CSAV Lonquen

Last reported at 2017-Jul-21 14:53 UTC. Time now 2017-Jul-26 10:26 UTC.
Position N 01°15' E 104°02'.

Length 261 m; draft 9.6 m.

Type: Ship (hazmat cat D). MMSI: 636091501.

Date/timePositionNaut miles runAvg speedWind from/ knotsBaromVisibWave heightAir tempDewpointWater temp
2017-Jul-21 14:53N 01°15' E 104°02'512.2
2017-Jul-21 14:29N 01°14' E 103°57'510.6
2017-Jul-21 14:00N 01°14' E 103°52'3 5.0
2017-Jul-21 13:30N 01°15' E 103°51'1 1.6
2017-Jul-21 13:00N 01°16' E 103°50'0 0.0
2017-Jul-21 12:30N 01°16' E 103°50'0 0.0
2017-Jul-21 12:00N 01°16' E 103°50'0 0.0
2017-Jul-21 11:30N 01°16' E 103°50'0 0.0
2017-Jul-21 11:00N 01°16' E 103°50'0 0.0
2017-Jul-21 10:30N 01°16' E 103°50'0 0.0
2017-Jul-21 10:00N 01°16' E 103°50'0 0.0
2017-Jul-21 09:30N 01°16' E 103°50'0 0.0
2017-Jul-21 08:54N 01°16' E 103°50'0 0.0
2017-Jul-21 08:30N 01°16' E 103°50'0 0.0
2017-Jul-21 08:00N 01°16' E 103°50'0 0.0
2017-Jul-21 07:30N 01°16' E 103°50'0 0.0
2017-Jul-21 07:00N 01°16' E 103°50'0 0.0
2017-Jul-21 06:30N 01°16' E 103°50'0 0.0
2017-Jul-21 06:00N 01°16' E 103°50'0 0.0
2017-Jul-21 05:30N 01°16' E 103°50'0 0.0
2017-Jul-21 05:00N 01°16' E 103°50'0 0.0
2017-Jul-21 04:27N 01°16' E 103°50'0 0.0
2017-Jul-21 03:57N 01°16' E 103°50'0 0.0
2017-Jul-21 03:30N 01°16' E 103°50'0 0.0
2017-Jul-21 03:00N 01°16' E 103°50'0 0.0
2017-Jul-21 02:27N 01°16' E 103°50'1 2.8
2017-Jul-21 02:01N 01°15' E 103°51'1 2.6
2017-Jul-21 01:30N 01°14' E 103°52'1 2.8
2017-Jul-21 01:01N 01°13' E 103°53'2 4.1
2017-Jul-21 00:30N 01°12' E 103°52'4 8.8
2017-Jul-21 00:01N 01°10' E 103°48'4 9.0
2017-Jul-20 23:30N 01°07' E 103°45'4 8.9
2017-Jul-20 23:01N 01°04' E 103°42'4 8.1
2017-Jul-20 22:30N 01°04' E 103°37'5 9.2
2017-Jul-20 22:00N 01°06' E 103°34'510.0
2017-Jul-20 21:30N 01°09' E 103°29'510.1
2017-Jul-20 21:00N 01°11' E 103°25'510.2
2017-Jul-20 20:30N 01°15' E 103°21'  

Dump ship's entire track history